createdAt,value
2023-04-18T00:00:10.293Z,10.20
2023-04-18T00:02:46.532Z,11.00
2023-04-18T00:05:18.155Z,10.50
2023-04-18T00:07:49.066Z,11.60
2023-04-18T00:10:19.969Z,11.10
2023-04-18T00:12:50.427Z,11.30
2023-04-18T00:15:20.900Z,10.80
2023-04-18T00:17:52.490Z,11.30
2023-04-18T00:20:46.013Z,9.80
2023-04-18T00:23:16.520Z,10.60
2023-04-18T00:25:47.150Z,10.90
2023-04-18T00:28:20.171Z,10.80
2023-04-18T00:30:52.480Z,9.90
2023-04-18T00:33:23.022Z,11.30
2023-04-18T00:35:56.246Z,11.10
2023-04-18T00:38:26.717Z,11.50
2023-04-18T00:41:17.762Z,10.90
2023-04-18T00:44:08.648Z,11.00
2023-04-18T00:46:41.546Z,10.90
2023-04-18T00:49:12.935Z,11.10
2023-04-18T00:51:54.510Z,10.10
2023-04-18T00:54:25.694Z,10.30
2023-04-18T00:56:56.326Z,11.10
2023-04-18T00:59:27.431Z,11.00
2023-04-18T01:01:58.125Z,12.10
2023-04-18T01:04:28.844Z,10.20
2023-04-18T01:06:59.631Z,11.20
2023-04-18T01:09:33.191Z,10.40
2023-04-18T01:12:06.527Z,11.10
2023-04-18T01:14:42.079Z,9.90
2023-04-18T01:17:16.281Z,10.80
2023-04-18T01:19:47.771Z,11.70
2023-04-18T01:22:20.653Z,10.50
2023-04-18T01:24:51.095Z,10.80
2023-04-18T01:27:24.240Z,10.80
2023-04-18T01:29:56.764Z,11.40
2023-04-18T01:32:27.172Z,11.60
2023-04-18T01:34:57.950Z,10.80
2023-04-18T01:37:28.507Z,10.20
2023-04-18T01:40:10.318Z,11.00
2023-04-18T01:42:53.058Z,11.40
2023-04-18T01:45:23.885Z,11.30
2023-04-18T01:47:54.463Z,10.50
2023-04-18T01:50:35.153Z,9.90
2023-04-18T01:53:05.766Z,11.70
2023-04-18T01:55:38.834Z,10.50
2023-04-18T01:58:10.050Z,11.20
2023-04-18T02:00:40.750Z,10.90
2023-04-18T02:03:11.368Z,9.60
2023-04-18T02:05:42.095Z,9.70
2023-04-18T02:08:15.108Z,11.20
2023-04-18T02:10:48.340Z,11.20
2023-04-18T02:13:21.367Z,10.90
2023-04-18T02:15:51.909Z,10.10
2023-04-18T02:18:24.894Z,10.50
2023-04-18T02:20:55.402Z,10.30
2023-04-18T02:23:35.965Z,9.80
2023-04-18T02:26:06.529Z,9.80
2023-04-18T02:28:40.257Z,9.60
2023-04-18T02:31:21.180Z,9.90
2023-04-18T02:33:53.927Z,9.00
2023-04-18T02:38:56.162Z,9.70
2023-04-18T02:41:29.189Z,10.90
2023-04-18T02:44:00.132Z,9.10
2023-04-18T02:46:31.481Z,9.80
2023-04-18T02:49:02.143Z,10.50
2023-04-18T02:51:35.532Z,11.10
2023-04-18T02:54:08.961Z,11.20
2023-04-18T02:56:59.779Z,10.90
2023-04-18T02:59:50.372Z,10.30
2023-04-18T03:02:39.606Z,10.90
2023-04-18T03:05:23.224Z,9.80
2023-04-18T03:07:57.767Z,11.50
2023-04-18T03:10:48.935Z,10.10
2023-04-18T03:13:26.976Z,10.40
2023-04-18T03:16:02.387Z,10.00
2023-04-18T03:18:33.186Z,10.80
2023-04-18T03:21:03.884Z,11.30
2023-04-18T03:23:35.058Z,10.70
2023-04-18T03:28:39.711Z,10.80
2023-04-18T03:31:10.534Z,11.30
2023-04-18T03:33:42.436Z,10.80
2023-04-18T03:36:17.700Z,11.20
2023-04-18T03:38:48.441Z,11.20
2023-04-18T03:41:19.109Z,10.50
2023-04-18T03:43:49.695Z,10.60
2023-04-18T03:46:22.034Z,11.50
2023-04-18T03:49:01.832Z,12.90
2023-04-18T03:51:42.560Z,11.60
2023-04-18T03:54:13.320Z,12.30
2023-04-18T03:56:59.495Z,12.60
2023-04-18T03:59:40.732Z,12.00
2023-04-18T04:05:00.871Z,11.60
2023-04-18T04:07:31.537Z,12.30
2023-04-18T04:10:02.210Z,12.50
2023-04-18T04:12:37.635Z,11.80
2023-04-18T04:15:28.481Z,12.90
2023-04-18T04:18:04.615Z,12.00
2023-04-18T04:20:35.815Z,13.20
2023-04-18T04:23:12.596Z,12.00
2023-04-18T04:25:46.735Z,11.20
2023-04-18T04:28:37.317Z,12.20
2023-04-18T04:31:10.224Z,11.40
2023-04-18T04:34:01.759Z,12.60
2023-04-18T04:36:33.410Z,11.90
2023-04-18T04:39:08.665Z,11.90
2023-04-18T04:42:01.434Z,12.60
2023-04-18T04:44:35.592Z,12.80
2023-04-18T04:47:08.735Z,13.10
2023-04-18T04:49:59.334Z,12.50
2023-04-18T04:52:34.547Z,12.50
2023-04-18T04:55:07.246Z,14.00
2023-04-18T04:57:40.134Z,11.80
2023-04-18T05:00:24.377Z,12.00
2023-04-18T05:02:59.071Z,13.40
2023-04-18T05:05:33.634Z,11.30
2023-04-18T05:08:12.747Z,12.90
2023-04-18T05:10:49.804Z,11.10
2023-04-18T05:13:40.446Z,11.50
2023-04-18T05:16:31.633Z,12.30
2023-04-18T05:19:22.377Z,11.60
2023-04-18T05:21:53.117Z,11.20
2023-04-18T05:24:43.914Z,13.00
2023-04-18T05:27:35.456Z,12.20
2023-04-18T05:33:00.970Z,11.40
2023-04-18T05:35:32.177Z,12.80
2023-04-18T05:38:05.002Z,11.70
2023-04-18T05:40:56.041Z,10.70
2023-04-18T05:43:37.694Z,12.70
2023-04-18T05:46:09.168Z,12.50
2023-04-18T05:51:10.544Z,13.50
2023-04-18T05:53:42.155Z,11.50
2023-04-18T05:56:33.106Z,12.10
2023-04-18T05:59:23.834Z,12.60
2023-04-18T06:02:14.535Z,11.60
2023-04-18T06:04:57.580Z,12.10
2023-04-18T06:07:28.452Z,11.60
2023-04-18T06:09:59.064Z,12.60
2023-04-18T06:12:31.961Z,12.50
2023-04-18T06:15:02.493Z,12.50
2023-04-18T06:17:34.295Z,12.10
2023-04-18T06:20:25.227Z,11.00
2023-04-18T06:22:55.845Z,11.70
2023-04-18T06:25:46.882Z,11.20
2023-04-18T06:28:19.635Z,12.50
2023-04-18T06:30:52.600Z,11.60
2023-04-18T06:33:43.336Z,11.30
2023-04-18T06:36:16.158Z,11.50
2023-04-18T06:38:46.740Z,11.80
2023-04-18T06:41:28.430Z,11.90
2023-04-18T06:44:03.704Z,10.10
2023-04-18T06:46:35.041Z,11.50
2023-04-18T06:49:10.732Z,11.20
2023-04-18T06:51:41.460Z,10.70
2023-04-18T06:54:12.229Z,11.30
2023-04-18T06:57:03.830Z,10.00
2023-04-18T06:59:44.392Z,11.00
2023-04-18T07:02:28.247Z,11.70
2023-04-18T07:04:59.440Z,12.40
2023-04-18T07:07:30.328Z,11.40
2023-04-18T07:10:05.751Z,11.30
2023-04-18T07:12:40.921Z,11.50
2023-04-18T07:15:12.884Z,11.00
2023-04-18T07:17:43.435Z,11.90
2023-04-18T07:20:16.780Z,11.40
2023-04-18T07:23:06.613Z,11.60
2023-04-18T07:25:40.686Z,10.10
2023-04-18T07:28:14.278Z,11.40
2023-04-18T07:30:49.156Z,11.70
2023-04-18T07:33:22.509Z,11.30
2023-04-18T07:35:53.831Z,10.50
2023-04-18T07:38:46.388Z,10.40
2023-04-18T07:41:20.269Z,12.30
2023-04-18T07:44:04.166Z,11.10
2023-04-18T07:46:55.672Z,11.50
2023-04-18T07:49:26.581Z,11.10
2023-04-18T07:52:00.284Z,11.50
2023-04-18T07:54:31.048Z,10.20
2023-04-18T07:57:01.952Z,11.70
2023-04-18T07:59:32.930Z,11.60
2023-04-18T08:02:03.495Z,12.00
2023-04-18T08:04:37.091Z,10.70
2023-04-18T08:07:08.058Z,11.80
2023-04-18T08:09:38.950Z,11.80
2023-04-18T08:12:09.951Z,10.90
2023-04-18T08:14:41.382Z,11.10
2023-04-18T08:17:12.210Z,12.10
2023-04-18T08:19:44.585Z,11.00
2023-04-18T08:22:15.634Z,10.40
2023-04-18T08:25:01.140Z,13.10
2023-04-18T08:27:34.795Z,11.10
2023-04-18T08:30:07.191Z,11.70
2023-04-18T08:32:38.443Z,11.20
2023-04-18T08:35:17.908Z,10.40
2023-04-18T08:37:48.570Z,10.60
2023-04-18T08:40:19.935Z,11.10
2023-04-18T08:42:56.906Z,10.40
2023-04-18T08:45:31.287Z,11.10
2023-04-18T08:48:04.005Z,11.50
2023-04-18T08:50:37.528Z,11.70
2023-04-18T08:53:08.176Z,10.80
2023-04-18T08:55:54.031Z,10.20
2023-04-18T08:58:26.981Z,11.00
2023-04-18T09:00:57.641Z,10.50
2023-04-18T09:03:42.292Z,10.20
2023-04-18T09:06:19.422Z,9.50
2023-04-18T09:09:00.372Z,9.30
2023-04-18T09:11:34.364Z,10.40
2023-04-18T09:14:04.941Z,10.70
2023-04-18T09:16:48.075Z,10.80
2023-04-18T09:19:19.056Z,10.00
2023-04-18T09:22:00.818Z,11.30
2023-04-18T09:24:32.684Z,9.80
2023-04-18T09:27:04.062Z,10.10
2023-04-18T09:32:26.843Z,9.70
2023-04-18T09:35:04.963Z,9.10
2023-04-18T09:37:36.207Z,9.60
2023-04-18T09:40:19.176Z,9.90
2023-04-18T09:42:51.578Z,8.90
2023-04-18T09:45:22.978Z,9.60
2023-04-18T09:50:36.232Z,8.90
2023-04-18T09:53:09.128Z,9.10
2023-04-18T09:55:42.424Z,9.30
2023-04-18T09:58:14.261Z,9.70
2023-04-18T10:00:46.963Z,9.30
2023-04-18T10:03:20.988Z,9.40
2023-04-18T10:05:52.331Z,9.10
2023-04-18T10:11:02.521Z,8.30
2023-04-18T10:13:35.581Z,8.10
2023-04-18T10:16:10.374Z,8.20
2023-04-18T10:18:41.088Z,9.10
2023-04-18T10:21:11.831Z,8.30
2023-04-18T10:23:42.617Z,8.50
2023-04-18T10:26:14.555Z,7.90
2023-04-18T10:28:56.890Z,7.90
2023-04-18T10:31:29.060Z,8.30
2023-04-18T10:36:34.472Z,8.20
2023-04-18T10:39:21.551Z,8.00
2023-04-18T10:41:52.661Z,7.40
2023-04-18T10:44:24.221Z,7.80
2023-04-18T10:47:33.004Z,7.70
2023-04-18T10:50:06.899Z,7.60
2023-04-18T10:52:37.509Z,7.20
2023-04-18T10:55:14.810Z,6.70
2023-04-18T10:57:46.824Z,6.80
2023-04-18T11:00:21.604Z,7.40
2023-04-18T11:02:56.018Z,6.70
2023-04-18T11:05:29.881Z,7.50
2023-04-18T11:08:00.226Z,6.40
2023-04-18T11:10:31.110Z,6.70
2023-04-18T11:13:04.677Z,6.50
2023-04-18T11:15:39.963Z,6.40
2023-04-18T11:18:11.776Z,6.50
2023-04-18T11:20:49.115Z,6.50
2023-04-18T11:23:22.897Z,6.20
2023-04-18T11:25:56.678Z,6.30
2023-04-18T11:28:28.659Z,5.80
2023-04-18T11:31:02.878Z,6.60
2023-04-18T11:33:33.410Z,6.10
2023-04-18T11:36:04.056Z,6.20
2023-04-18T11:38:34.589Z,6.80
2023-04-18T11:41:06.267Z,6.30
2023-04-18T11:43:36.797Z,6.10
2023-04-18T11:46:07.644Z,6.50
2023-04-18T11:48:39.076Z,6.10
2023-04-18T11:51:30.153Z,6.10
2023-04-18T11:54:00.508Z,5.30
2023-04-18T11:56:30.957Z,5.50
2023-04-18T11:59:09.080Z,5.80
2023-04-18T12:01:39.664Z,5.90
2023-04-18T12:04:11.070Z,5.10
2023-04-18T12:06:52.976Z,5.70
2023-04-18T12:09:26.250Z,5.00
2023-04-18T12:12:03.986Z,5.90
2023-04-18T12:14:36.613Z,5.70
2023-04-18T12:17:07.337Z,5.90
2023-04-18T12:19:38.270Z,5.90
2023-04-18T12:22:10.079Z,5.60
2023-04-18T12:24:41.797Z,6.00
2023-04-18T12:27:12.651Z,5.10
2023-04-18T12:29:43.119Z,5.70
2023-04-18T12:32:13.455Z,5.20
2023-04-18T12:34:46.176Z,5.70
2023-04-18T12:37:16.680Z,6.20
2023-04-18T12:39:47.092Z,6.20
2023-04-18T12:42:17.711Z,6.10
2023-04-18T12:44:48.133Z,5.50
2023-04-18T12:47:18.738Z,5.30
2023-04-18T12:49:49.180Z,5.40
2023-04-18T12:52:19.624Z,5.40
2023-04-18T12:54:50.180Z,5.80
2023-04-18T12:57:21.214Z,6.10
2023-04-18T12:59:51.594Z,5.70
2023-04-18T13:02:22.753Z,5.30
2023-04-18T13:04:53.702Z,5.60
2023-04-18T13:07:24.372Z,5.50
2023-04-18T13:09:54.917Z,4.80
2023-04-18T13:12:25.521Z,5.30
2023-04-18T13:14:56.272Z,4.90
2023-04-18T13:17:26.865Z,5.10
2023-04-18T13:19:57.504Z,5.20
2023-04-18T13:22:28.367Z,4.70
2023-04-18T13:24:58.800Z,5.40
2023-04-18T13:27:29.300Z,5.00
2023-04-18T13:29:59.870Z,4.70
2023-04-18T13:32:30.352Z,4.30
2023-04-18T13:35:03.162Z,5.10
2023-04-18T13:37:33.769Z,5.00
2023-04-18T13:40:05.580Z,4.50
2023-04-18T13:42:37.207Z,5.00
2023-04-18T13:45:08.982Z,4.70
2023-04-18T13:47:39.475Z,5.20
2023-04-18T13:50:12.116Z,4.70
2023-04-18T13:52:42.571Z,5.00
2023-04-18T13:55:13.323Z,5.40
2023-04-18T13:57:43.652Z,5.70
2023-04-18T14:00:16.815Z,5.20
2023-04-18T14:02:47.622Z,5.10
2023-04-18T14:05:18.631Z,5.40
2023-04-18T14:07:49.758Z,5.70
2023-04-18T14:12:49.600Z,5.80
2023-04-18T14:15:21.664Z,5.70
2023-04-18T14:17:52.287Z,5.40
2023-04-18T14:20:23.312Z,5.70
2023-04-18T14:22:53.732Z,5.40
2023-04-18T14:25:24.439Z,5.20
2023-04-18T14:28:09.433Z,5.70
2023-04-18T14:30:41.290Z,5.50
2023-04-18T14:33:11.718Z,5.60
2023-04-18T14:35:43.666Z,5.50
2023-04-18T14:38:14.048Z,5.20
2023-04-18T14:40:45.026Z,5.90
2023-04-18T14:43:15.954Z,5.50
2023-04-18T14:45:46.589Z,5.00
2023-04-18T14:48:17.250Z,5.40
2023-04-18T14:50:48.023Z,5.20
2023-04-18T14:53:18.509Z,5.20
2023-04-18T14:55:48.808Z,5.10
2023-04-18T14:58:19.333Z,5.50
2023-04-18T15:00:50.056Z,5.10
2023-04-18T15:03:20.664Z,5.10
2023-04-18T15:05:53.172Z,5.50
2023-04-18T15:08:23.764Z,5.00
2023-04-18T15:10:54.352Z,5.10
2023-04-18T15:13:25.308Z,5.40
2023-04-18T15:18:26.032Z,5.50
2023-04-18T15:20:57.096Z,5.40
2023-04-18T15:23:27.654Z,5.30
2023-04-18T15:25:59.113Z,5.50
2023-04-18T15:28:29.803Z,5.10
2023-04-18T15:31:00.298Z,5.10
2023-04-18T15:33:31.020Z,5.10
2023-04-18T15:36:01.347Z,5.60
2023-04-18T15:38:33.194Z,5.10
2023-04-18T15:41:03.774Z,5.00
2023-04-18T15:43:34.275Z,5.00
2023-04-18T15:46:04.856Z,4.80
2023-04-18T15:48:36.436Z,5.20
2023-04-18T15:51:07.807Z,5.40
2023-04-18T15:53:38.246Z,5.70
2023-04-18T15:56:09.161Z,5.60
2023-04-18T15:58:39.895Z,5.40
2023-04-18T16:01:13.271Z,5.30
2023-04-18T16:03:44.195Z,5.90
2023-04-18T16:06:16.672Z,5.80
2023-04-18T16:08:47.080Z,5.30
2023-04-18T16:11:18.242Z,5.50
2023-04-18T16:16:17.807Z,5.50
2023-04-18T16:18:48.506Z,5.10
2023-04-18T16:21:21.652Z,5.80
2023-04-18T16:23:52.232Z,5.90
2023-04-18T16:26:24.872Z,5.50
2023-04-18T16:28:55.562Z,5.40
2023-04-18T16:31:26.384Z,5.30
2023-04-18T16:33:57.059Z,6.10
2023-04-18T16:36:27.640Z,6.10
2023-04-18T16:38:58.320Z,5.70
2023-04-18T16:41:28.807Z,5.60
2023-04-18T16:43:59.387Z,5.30
2023-04-18T16:46:32.146Z,5.50
2023-04-18T16:49:03.074Z,6.10
2023-04-18T16:51:36.255Z,5.80
2023-04-18T16:54:08.563Z,5.50
2023-04-18T16:56:39.234Z,5.50
2023-04-18T16:59:10.659Z,6.20
2023-04-18T17:01:41.235Z,5.90
2023-04-18T17:04:11.898Z,6.40
2023-04-18T17:06:43.787Z,6.20
2023-04-18T17:09:19.813Z,5.60
2023-04-18T17:11:50.736Z,6.60
2023-04-18T17:14:21.404Z,6.50
2023-04-18T17:16:53.780Z,6.60
2023-04-18T17:19:26.383Z,6.10
2023-04-18T17:21:57.076Z,5.50
2023-04-18T17:24:27.739Z,6.50
2023-04-18T17:26:59.270Z,6.70
2023-04-18T17:29:29.636Z,6.00
2023-04-18T17:32:00.233Z,5.70
2023-04-18T17:34:30.930Z,6.10
2023-04-18T17:37:01.678Z,6.10
2023-04-18T17:39:33.709Z,6.00
2023-04-18T17:42:07.687Z,6.60
2023-04-18T17:44:58.496Z,6.50
2023-04-18T17:47:29.319Z,6.70
2023-04-18T17:49:59.904Z,7.10
2023-04-18T17:52:31.202Z,6.00
2023-04-18T17:57:33.692Z,6.20
2023-04-18T18:00:08.888Z,6.40
2023-04-18T18:02:43.367Z,6.30
2023-04-18T18:05:17.239Z,7.40
2023-04-18T18:07:49.639Z,6.40
2023-04-18T18:10:24.570Z,6.80
2023-04-18T18:12:58.054Z,7.10
2023-04-18T18:15:28.689Z,6.60
2023-04-18T18:18:10.849Z,6.90
2023-04-18T18:20:56.336Z,7.40
2023-04-18T18:23:38.038Z,6.60
2023-04-18T18:26:11.346Z,7.40
2023-04-18T18:28:51.362Z,7.20
2023-04-18T18:31:25.088Z,7.00
2023-04-18T18:33:59.249Z,7.60
2023-04-18T18:36:36.415Z,8.30
2023-04-18T18:39:14.627Z,7.50
2023-04-18T18:41:58.422Z,8.90
2023-04-18T18:44:29.039Z,8.90
2023-04-18T18:47:09.875Z,8.00
2023-04-18T18:49:40.833Z,8.00
2023-04-18T18:52:11.799Z,8.00
2023-04-18T18:54:42.618Z,8.10
2023-04-18T18:57:15.844Z,8.00
2023-04-18T18:59:46.338Z,8.50
2023-04-18T19:02:26.693Z,9.50
2023-04-18T19:05:17.833Z,8.70
2023-04-18T19:07:49.201Z,9.00
2023-04-18T19:10:28.769Z,8.10
2023-04-18T19:13:00.273Z,8.10
2023-04-18T19:15:33.716Z,8.50
2023-04-18T19:18:04.696Z,8.90
2023-04-18T19:20:35.619Z,7.70
2023-04-18T19:23:06.825Z,8.40
2023-04-18T19:25:37.914Z,9.70
2023-04-18T19:28:08.902Z,9.60
2023-04-18T19:30:41.880Z,9.00
2023-04-18T19:33:15.211Z,9.40
2023-04-18T19:35:46.011Z,9.20
2023-04-18T19:38:19.776Z,10.20
2023-04-18T19:40:50.748Z,9.10
2023-04-18T19:43:21.600Z,9.30
2023-04-18T19:45:55.010Z,10.30
2023-04-18T19:48:26.189Z,9.70
2023-04-18T19:50:58.351Z,10.80
2023-04-18T19:53:29.097Z,9.80
2023-04-18T19:56:01.924Z,9.30
2023-04-18T19:58:45.017Z,10.40
2023-04-18T20:01:26.047Z,10.20
2023-04-18T20:04:10.150Z,9.80
2023-04-18T20:09:15.846Z,9.50
2023-04-18T20:11:48.485Z,10.20
2023-04-18T20:14:19.275Z,9.70
2023-04-18T20:16:50.270Z,9.40
2023-04-18T20:19:25.587Z,11.50
2023-04-18T20:21:56.308Z,9.90
2023-04-18T20:24:39.417Z,10.90
2023-04-18T20:27:13.658Z,11.50
2023-04-18T20:29:45.239Z,10.90
2023-04-18T20:32:16.128Z,12.10
2023-04-18T20:34:46.950Z,10.20
2023-04-18T20:37:19.919Z,11.00
2023-04-18T20:39:50.642Z,11.30
2023-04-18T20:42:21.238Z,10.10
2023-04-18T20:44:54.809Z,10.40
2023-04-18T20:47:28.617Z,11.10
2023-04-18T20:50:01.468Z,11.90
2023-04-18T20:52:34.502Z,11.60
2023-04-18T20:55:09.660Z,11.30
2023-04-18T20:57:40.261Z,12.50
2023-04-18T21:00:14.267Z,12.20
2023-04-18T21:02:45.292Z,12.10
2023-04-18T21:05:27.340Z,11.30
2023-04-18T21:08:00.265Z,11.00
2023-04-18T21:10:30.915Z,10.40
2023-04-18T21:13:04.613Z,12.10
2023-04-18T21:15:46.911Z,11.00
2023-04-18T21:18:19.758Z,10.70
2023-04-18T21:21:10.529Z,11.30
2023-04-18T21:23:47.020Z,10.90
2023-04-18T21:26:29.025Z,11.60
2023-04-18T21:29:04.708Z,11.90
2023-04-18T21:31:36.477Z,12.70
2023-04-18T21:34:07.230Z,11.50
2023-04-18T21:36:46.804Z,11.10
2023-04-18T21:39:17.486Z,11.10
2023-04-18T21:41:48.100Z,9.70
2023-04-18T21:44:19.167Z,9.60
2023-04-18T21:46:52.038Z,10.50
2023-04-18T21:49:25.750Z,9.30
2023-04-18T21:51:56.598Z,8.80
2023-04-18T21:54:27.994Z,8.60
2023-04-18T21:57:12.743Z,7.50
2023-04-18T21:59:43.508Z,7.40
2023-04-18T22:02:14.296Z,8.40
2023-04-18T22:04:45.075Z,7.70
2023-04-18T22:07:25.435Z,7.40
2023-04-18T22:09:58.854Z,7.70
2023-04-18T22:12:32.173Z,8.00
2023-04-18T22:15:06.483Z,8.20
2023-04-18T22:17:43.132Z,6.70
2023-04-18T22:20:17.401Z,7.10
2023-04-18T22:22:50.941Z,7.50
2023-04-18T22:25:32.786Z,7.10
2023-04-18T22:28:13.514Z,7.40
2023-04-18T22:30:43.974Z,8.30
2023-04-18T22:33:17.013Z,7.30
2023-04-18T22:35:52.018Z,7.50
2023-04-18T22:38:36.571Z,7.90
2023-04-18T22:41:18.289Z,7.20
2023-04-18T22:43:48.875Z,7.40
2023-04-18T22:46:21.850Z,7.70
2023-04-18T22:48:55.602Z,6.80
2023-04-18T22:51:47.449Z,7.20
2023-04-18T22:54:41.234Z,6.60
2023-04-18T22:57:18.993Z,7.20
2023-04-18T22:59:49.477Z,6.20
2023-04-18T23:02:22.645Z,7.20
2023-04-18T23:05:15.606Z,6.10
2023-04-18T23:07:48.770Z,6.60
2023-04-18T23:10:19.444Z,7.00
2023-04-18T23:12:52.428Z,7.50
2023-04-18T23:15:27.069Z,7.70
2023-04-18T23:18:00.237Z,7.60
2023-04-18T23:20:33.851Z,8.10
2023-04-18T23:23:13.990Z,7.40
2023-04-18T23:25:49.604Z,7.90
2023-04-18T23:28:23.122Z,7.10
2023-04-18T23:30:53.895Z,7.20
2023-04-18T23:33:44.289Z,8.00
2023-04-18T23:36:14.804Z,6.70
2023-04-18T23:38:48.399Z,7.10
2023-04-18T23:41:21.160Z,6.90
2023-04-18T23:43:57.092Z,7.20
2023-04-18T23:46:36.942Z,7.00
2023-04-18T23:49:07.466Z,7.40
2023-04-18T23:51:55.109Z,6.50
2023-04-18T23:57:06.100Z,7.50
2023-04-18T23:59:41.219Z,7.60
